sensor_id;sensor_type;location;lat;lon;timestamp;P1;durP1;ratioP1;P2;durP2;ratioP2
11533;SDS011;5823;50.588;8.462;2023-03-01T00:01:18;0.50;;;0.50;;
11533;SDS011;5823;50.588;8.462;2023-03-01T00:03:44;0.45;;;0.45;;
11533;SDS011;5823;50.588;8.462;2023-03-01T00:06:12;0.40;;;0.40;;
11533;SDS011;5823;50.588;8.462;2023-03-01T00:08:38;0.20;;;0.20;;
11533;SDS011;5823;50.588;8.462;2023-03-01T00:11:05;0.43;;;0.43;;
11533;SDS011;5823;50.588;8.462;2023-03-01T00:13:32;0.30;;;0.30;;
11533;SDS011;5823;50.588;8.462;2023-03-01T00:15:58;0.38;;;0.38;;
11533;SDS011;5823;50.588;8.462;2023-03-01T00:18:25;0.60;;;0.60;;
11533;SDS011;5823;50.588;8.462;2023-03-01T00:20:51;0.52;;;0.50;;
11533;SDS011;5823;50.588;8.462;2023-03-01T00:23:19;0.63;;;0.50;;
11533;SDS011;5823;50.588;8.462;2023-03-01T00:25:45;0.55;;;0.55;;
11533;SDS011;5823;50.588;8.462;2023-03-01T00:28:11;0.30;;;0.30;;
11533;SDS011;5823;50.588;8.462;2023-03-01T00:30:38;0.30;;;0.30;;
11533;SDS011;5823;50.588;8.462;2023-03-01T00:33:04;0.30;;;0.30;;
11533;SDS011;5823;50.588;8.462;2023-03-01T00:35:31;0.57;;;0.50;;
11533;SDS011;5823;50.588;8.462;2023-03-01T00:37:57;0.52;;;0.52;;
11533;SDS011;5823;50.588;8.462;2023-03-01T00:40:25;0.40;;;0.40;;
11533;SDS011;5823;50.588;8.462;2023-03-01T00:42:51;0.40;;;0.40;;
11533;SDS011;5823;50.588;8.462;2023-03-01T00:45:18;0.40;;;0.40;;
11533;SDS011;5823;50.588;8.462;2023-03-01T00:47:44;0.30;;;0.30;;
11533;SDS011;5823;50.588;8.462;2023-03-01T00:50:11;0.20;;;0.20;;
11533;SDS011;5823;50.588;8.462;2023-03-01T00:52:37;0.20;;;0.20;;
11533;SDS011;5823;50.588;8.462;2023-03-01T00:55:04;0.30;;;0.30;;
11533;SDS011;5823;50.588;8.462;2023-03-01T00:57:32;0.40;;;0.40;;
11533;SDS011;5823;50.588;8.462;2023-03-01T00:59:58;0.30;;;0.28;;
11533;SDS011;5823;50.588;8.462;2023-03-01T01:02:24;0.20;;;0.20;;
11533;SDS011;5823;50.588;8.462;2023-03-01T01:04:51;0.38;;;0.38;;
11533;SDS011;5823;50.588;8.462;2023-03-01T01:07:17;0.40;;;0.40;;
11533;SDS011;5823;50.588;8.462;2023-03-01T01:09:45;0.32;;;0.32;;
11533;SDS011;5823;50.588;8.462;2023-03-01T01:12:11;0.45;;;0.45;;
11533;SDS011;5823;50.588;8.462;2023-03-01T01:14:39;0.30;;;0.30;;
11533;SDS011;5823;50.588;8.462;2023-03-01T01:17:05;0.40;;;0.40;;
11533;SDS011;5823;50.588;8.462;2023-03-01T01:19:31;0.30;;;0.30;;
11533;SDS011;5823;50.588;8.462;2023-03-01T01:21:57;0.25;;;0.25;;
11533;SDS011;5823;50.588;8.462;2023-03-01T01:24:24;0.55;;;0.55;;
11533;SDS011;5823;50.588;8.462;2023-03-01T01:26:50;0.40;;;0.40;;
11533;SDS011;5823;50.588;8.462;2023-03-01T01:29:16;0.13;;;0.13;;
11533;SDS011;5823;50.588;8.462;2023-03-01T01:31:44;0.40;;;0.28;;
11533;SDS011;5823;50.588;8.462;2023-03-01T01:34:12;0.20;;;0.20;;
11533;SDS011;5823;50.588;8.462;2023-03-01T01:36:39;0.40;;;0.40;;
11533;SDS011;5823;50.588;8.462;2023-03-01T01:39:05;0.40;;;0.40;;
11533;SDS011;5823;50.588;8.462;2023-03-01T01:41:32;0.45;;;0.45;;
11533;SDS011;5823;50.588;8.462;2023-03-01T01:44:15;0.57;;;0.57;;
11533;SDS011;5823;50.588;8.462;2023-03-01T01:46:41;0.63;;;0.40;;
11533;SDS011;5823;50.588;8.462;2023-03-01T01:49:12;0.73;;;0.63;;
11533;SDS011;5823;50.588;8.462;2023-03-01T01:51:42;0.40;;;0.40;;
11533;SDS011;5823;50.588;8.462;2023-03-01T01:54:15;0.52;;;0.50;;
11533;SDS011;5823;50.588;8.462;2023-03-01T01:56:43;0.50;;;0.50;;
11533;SDS011;5823;50.588;8.462;2023-03-01T01:59:10;0.40;;;0.40;;
11533;SDS011;5823;50.588;8.462;2023-03-01T02:01:37;0.50;;;0.50;;
11533;SDS011;5823;50.588;8.462;2023-03-01T02:04:03;0.40;;;0.40;;
11533;SDS011;5823;50.588;8.462;2023-03-01T02:06:33;0.25;;;0.25;;
11533;SDS011;5823;50.588;8.462;2023-03-01T02:09:02;0.50;;;0.50;;
11533;SDS011;5823;50.588;8.462;2023-03-01T02:11:29;0.32;;;0.32;;
11533;SDS011;5823;50.588;8.462;2023-03-01T02:13:56;0.40;;;0.40;;
11533;SDS011;5823;50.588;8.462;2023-03-01T02:16:22;0.40;;;0.40;;
11533;SDS011;5823;50.588;8.462;2023-03-01T02:18:48;0.40;;;0.40;;
11533;SDS011;5823;50.588;8.462;2023-03-01T02:21:23;0.45;;;0.45;;
11533;SDS011;5823;50.588;8.462;2023-03-01T02:23:53;0.50;;;0.50;;
11533;SDS011;5823;50.588;8.462;2023-03-01T02:26:23;0.32;;;0.32;;
11533;SDS011;5823;50.588;8.462;2023-03-01T02:28:55;0.40;;;0.40;;
11533;SDS011;5823;50.588;8.462;2023-03-01T02:31:21;0.30;;;0.30;;
11533;SDS011;5823;50.588;8.462;2023-03-01T02:34:05;0.20;;;0.20;;
11533;SDS011;5823;50.588;8.462;2023-03-01T02:36:34;0.20;;;0.20;;
11533;SDS011;5823;50.588;8.462;2023-03-01T02:39:01;0.28;;;0.20;;
11533;SDS011;5823;50.588;8.462;2023-03-01T02:41:29;0.10;;;0.10;;
11533;SDS011;5823;50.588;8.462;2023-03-01T02:43:58;0.38;;;0.38;;
11533;SDS011;5823;50.588;8.462;2023-03-01T02:46:25;0.70;;;0.57;;
11533;SDS011;5823;50.588;8.462;2023-03-01T02:48:52;0.40;;;0.40;;
11533;SDS011;5823;50.588;8.462;2023-03-01T02:51:22;0.50;;;0.40;;
11533;SDS011;5823;50.588;8.462;2023-03-01T02:53:52;0.30;;;0.30;;
11533;SDS011;5823;50.588;8.462;2023-03-01T02:56:20;0.30;;;0.30;;
11533;SDS011;5823;50.588;8.462;2023-03-01T02:58:47;0.30;;;0.30;;
11533;SDS011;5823;50.588;8.462;2023-03-01T03:01:18;0.40;;;0.40;;
11533;SDS011;5823;50.588;8.462;2023-03-01T03:03:44;0.30;;;0.30;;
11533;SDS011;5823;50.588;8.462;2023-03-01T03:06:10;0.38;;;0.30;;
11533;SDS011;5823;50.588;8.462;2023-03-01T03:08:37;0.38;;;0.32;;
11533;SDS011;5823;50.588;8.462;2023-03-01T03:11:03;0.52;;;0.52;;
11533;SDS011;5823;50.588;8.462;2023-03-01T03:13:29;0.50;;;0.50;;
11533;SDS011;5823;50.588;8.462;2023-03-01T03:15:57;0.73;;;0.73;;
11533;SDS011;5823;50.588;8.462;2023-03-01T03:18:25;0.63;;;0.50;;
11533;SDS011;5823;50.588;8.462;2023-03-01T03:20:51;0.65;;;0.50;;
11533;SDS011;5823;50.588;8.462;2023-03-01T03:23:18;0.88;;;0.55;;
11533;SDS011;5823;50.588;8.462;2023-03-01T03:25:44;0.40;;;0.40;;
11533;SDS011;5823;50.588;8.462;2023-03-01T03:28:13;0.25;;;0.25;;
11533;SDS011;5823;50.588;8.462;2023-03-01T03:30:40;0.47;;;0.47;;
11533;SDS011;5823;50.588;8.462;2023-03-01T03:33:07;0.43;;;0.43;;
11533;SDS011;5823;50.588;8.462;2023-03-01T03:35:37;0.73;;;0.60;;
11533;SDS011;5823;50.588;8.462;2023-03-01T03:38:05;0.37;;;0.33;;
11533;SDS011;5823;50.588;8.462;2023-03-01T03:40:34;0.90;;;0.30;;
11533;SDS011;5823;50.588;8.462;2023-03-01T03:43:00;0.50;;;0.50;;
11533;SDS011;5823;50.588;8.462;2023-03-01T03:45:27;0.43;;;0.43;;
11533;SDS011;5823;50.588;8.462;2023-03-01T03:47:53;0.50;;;0.50;;
11533;SDS011;5823;50.588;8.462;2023-03-01T03:50:19;0.70;;;0.70;;
11533;SDS011;5823;50.588;8.462;2023-03-01T03:52:47;0.60;;;0.60;;
11533;SDS011;5823;50.588;8.462;2023-03-01T03:55:13;0.70;;;0.60;;
11533;SDS011;5823;50.588;8.462;2023-03-01T03:57:44;0.70;;;0.70;;
11533;SDS011;5823;50.588;8.462;2023-03-01T04:00:17;0.67;;;0.67;;
11533;SDS011;5823;50.588;8.462;2023-03-01T04:02:43;0.32;;;0.32;;
11533;SDS011;5823;50.588;8.462;2023-03-01T04:05:11;0.60;;;0.60;;
11533;SDS011;5823;50.588;8.462;2023-03-01T04:07:39;0.40;;;0.40;;
11533;SDS011;5823;50.588;8.462;2023-03-01T04:10:09;0.30;;;0.30;;
11533;SDS011;5823;50.588;8.462;2023-03-01T04:12:35;0.30;;;0.30;;
11533;SDS011;5823;50.588;8.462;2023-03-01T04:15:02;0.40;;;0.40;;
11533;SDS011;5823;50.588;8.462;2023-03-01T04:17:37;0.60;;;0.60;;
11533;SDS011;5823;50.588;8.462;2023-03-01T04:20:04;0.43;;;0.40;;
11533;SDS011;5823;50.588;8.462;2023-03-01T04:22:32;0.43;;;0.43;;
11533;SDS011;5823;50.588;8.462;2023-03-01T04:24:59;0.50;;;0.50;;
11533;SDS011;5823;50.588;8.462;2023-03-01T04:27:32;0.43;;;0.38;;
11533;SDS011;5823;50.588;8.462;2023-03-01T04:29:58;0.60;;;0.40;;
11533;SDS011;5823;50.588;8.462;2023-03-01T04:32:24;0.40;;;0.40;;
11533;SDS011;5823;50.588;8.462;2023-03-01T04:34:51;0.52;;;0.50;;
11533;SDS011;5823;50.588;8.462;2023-03-01T04:37:17;0.70;;;0.70;;
11533;SDS011;5823;50.588;8.462;2023-03-01T04:39:43;0.57;;;0.50;;
11533;SDS011;5823;50.588;8.462;2023-03-01T04:42:10;0.80;;;0.70;;
11533;SDS011;5823;50.588;8.462;2023-03-01T04:44:38;0.80;;;0.80;;
11533;SDS011;5823;50.588;8.462;2023-03-01T04:47:04;0.70;;;0.70;;
11533;SDS011;5823;50.588;8.462;2023-03-01T04:49:30;0.30;;;0.30;;
11533;SDS011;5823;50.588;8.462;2023-03-01T04:51:57;0.50;;;0.50;;
11533;SDS011;5823;50.588;8.462;2023-03-01T04:54:27;0.40;;;0.40;;
11533;SDS011;5823;50.588;8.462;2023-03-01T04:56:53;0.65;;;0.63;;
11533;SDS011;5823;50.588;8.462;2023-03-01T04:59:19;0.70;;;0.70;;
11533;SDS011;5823;50.588;8.462;2023-03-01T05:01:48;0.30;;;0.30;;
11533;SDS011;5823;50.588;8.462;2023-03-01T05:04:15;0.50;;;0.50;;
11533;SDS011;5823;50.588;8.462;2023-03-01T05:06:41;0.40;;;0.40;;
11533;SDS011;5823;50.588;8.462;2023-03-01T05:09:07;0.60;;;0.50;;
11533;SDS011;5823;50.588;8.462;2023-03-01T05:11:33;0.50;;;0.50;;
11533;SDS011;5823;50.588;8.462;2023-03-01T05:14:00;0.60;;;0.50;;
11533;SDS011;5823;50.588;8.462;2023-03-01T05:16:27;0.70;;;0.63;;
11533;SDS011;5823;50.588;8.462;2023-03-01T05:18:54;0.50;;;0.50;;
11533;SDS011;5823;50.588;8.462;2023-03-01T05:21:21;0.30;;;0.30;;
11533;SDS011;5823;50.588;8.462;2023-03-01T05:23:47;0.70;;;0.60;;
11533;SDS011;5823;50.588;8.462;2023-03-01T05:26:14;0.70;;;0.70;;
11533;SDS011;5823;50.588;8.462;2023-03-01T05:28:41;0.50;;;0.50;;
11533;SDS011;5823;50.588;8.462;2023-03-01T05:31:07;0.40;;;0.40;;
11533;SDS011;5823;50.588;8.462;2023-03-01T05:33:34;0.60;;;0.57;;
11533;SDS011;5823;50.588;8.462;2023-03-01T05:36:02;0.63;;;0.60;;
11533;SDS011;5823;50.588;8.462;2023-03-01T05:38:29;0.63;;;0.63;;
11533;SDS011;5823;50.588;8.462;2023-03-01T05:40:55;0.60;;;0.52;;
11533;SDS011;5823;50.588;8.462;2023-03-01T05:43:21;0.47;;;0.47;;
11533;SDS011;5823;50.588;8.462;2023-03-01T05:45:47;0.57;;;0.57;;
11533;SDS011;5823;50.588;8.462;2023-03-01T05:48:14;0.70;;;0.70;;
11533;SDS011;5823;50.588;8.462;2023-03-01T05:50:41;0.50;;;0.50;;
11533;SDS011;5823;50.588;8.462;2023-03-01T05:53:10;1.17;;;0.60;;
11533;SDS011;5823;50.588;8.462;2023-03-01T05:55:37;0.77;;;0.60;;
11533;SDS011;5823;50.588;8.462;2023-03-01T05:58:05;0.60;;;0.60;;
11533;SDS011;5823;50.588;8.462;2023-03-01T06:00:31;0.73;;;0.63;;
11533;SDS011;5823;50.588;8.462;2023-03-01T06:02:58;0.35;;;0.35;;
11533;SDS011;5823;50.588;8.462;2023-03-01T06:05:25;0.52;;;0.43;;
11533;SDS011;5823;50.588;8.462;2023-03-01T06:07:51;0.50;;;0.50;;
11533;SDS011;5823;50.588;8.462;2023-03-01T06:10:20;0.90;;;0.80;;
11533;SDS011;5823;50.588;8.462;2023-03-01T06:12:46;0.52;;;0.50;;
11533;SDS011;5823;50.588;8.462;2023-03-01T06:15:13;1.13;;;0.60;;
11533;SDS011;5823;50.588;8.462;2023-03-01T06:17:40;0.50;;;0.38;;
11533;SDS011;5823;50.588;8.462;2023-03-01T06:20:08;0.75;;;0.52;;
11533;SDS011;5823;50.588;8.462;2023-03-01T06:22:34;0.93;;;0.68;;
11533;SDS011;5823;50.588;8.462;2023-03-01T06:25:01;1.00;;;0.90;;
11533;SDS011;5823;50.588;8.462;2023-03-01T06:27:28;1.20;;;1.00;;
11533;SDS011;5823;50.588;8.462;2023-03-01T06:29:55;1.85;;;1.60;;
11533;SDS011;5823;50.588;8.462;2023-03-01T06:32:21;1.50;;;1.20;;
11533;SDS011;5823;50.588;8.462;2023-03-01T06:34:47;1.55;;;1.38;;
11533;SDS011;5823;50.588;8.462;2023-03-01T06:37:13;0.68;;;0.68;;
11533;SDS011;5823;50.588;8.462;2023-03-01T06:39:40;0.57;;;0.57;;
11533;SDS011;5823;50.588;8.462;2023-03-01T06:42:06;2.72;;;2.10;;
11533;SDS011;5823;50.588;8.462;2023-03-01T06:44:34;1.40;;;1.30;;
11533;SDS011;5823;50.588;8.462;2023-03-01T06:47:00;1.13;;;1.00;;
11533;SDS011;5823;50.588;8.462;2023-03-01T06:49:27;0.90;;;0.68;;
11533;SDS011;5823;50.588;8.462;2023-03-01T06:51:53;1.00;;;0.80;;
11533;SDS011;5823;50.588;8.462;2023-03-01T06:54:19;0.70;;;0.70;;
11533;SDS011;5823;50.588;8.462;2023-03-01T06:56:47;1.02;;;0.85;;
11533;SDS011;5823;50.588;8.462;2023-03-01T06:59:13;0.93;;;0.85;;
11533;SDS011;5823;50.588;8.462;2023-03-01T07:01:41;0.52;;;0.52;;
11533;SDS011;5823;50.588;8.462;2023-03-01T07:04:08;0.90;;;0.88;;
11533;SDS011;5823;50.588;8.462;2023-03-01T07:06:34;0.75;;;0.75;;
11533;SDS011;5823;50.588;8.462;2023-03-01T07:09:00;0.70;;;0.70;;
11533;SDS011;5823;50.588;8.462;2023-03-01T07:11:27;0.88;;;0.80;;
11533;SDS011;5823;50.588;8.462;2023-03-01T07:13:53;2.08;;;1.40;;
11533;SDS011;5823;50.588;8.462;2023-03-01T07:16:20;1.05;;;0.95;;
11533;SDS011;5823;50.588;8.462;2023-03-01T07:18:47;1.35;;;1.13;;
11533;SDS011;5823;50.588;8.462;2023-03-01T07:21:14;0.88;;;0.85;;
11533;SDS011;5823;50.588;8.462;2023-03-01T07:23:41;0.75;;;0.75;;
11533;SDS011;5823;50.588;8.462;2023-03-01T07:26:07;1.83;;;1.40;;
11533;SDS011;5823;50.588;8.462;2023-03-01T07:28:33;0.90;;;0.80;;
11533;SDS011;5823;50.588;8.462;2023-03-01T07:31:01;2.30;;;1.02;;
11533;SDS011;5823;50.588;8.462;2023-03-01T07:33:27;1.05;;;0.95;;
11533;SDS011;5823;50.588;8.462;2023-03-01T07:35:56;0.60;;;0.60;;
11533;SDS011;5823;50.588;8.462;2023-03-01T07:38:23;1.65;;;0.85;;
11533;SDS011;5823;50.588;8.462;2023-03-01T07:40:50;0.73;;;0.70;;
11533;SDS011;5823;50.588;8.462;2023-03-01T07:43:16;1.20;;;1.10;;
11533;SDS011;5823;50.588;8.462;2023-03-01T07:45:42;1.10;;;0.90;;
11533;SDS011;5823;50.588;8.462;2023-03-01T07:48:08;0.93;;;0.90;;
11533;SDS011;5823;50.588;8.462;2023-03-01T07:50:35;1.20;;;1.05;;
11533;SDS011;5823;50.588;8.462;2023-03-01T07:53:02;1.17;;;1.02;;
11533;SDS011;5823;50.588;8.462;2023-03-01T07:55:29;2.65;;;1.98;;
11533;SDS011;5823;50.588;8.462;2023-03-01T07:57:55;1.92;;;1.55;;
11533;SDS011;5823;50.588;8.462;2023-03-01T08:00:22;1.75;;;1.58;;
11533;SDS011;5823;50.588;8.462;2023-03-01T08:02:48;2.22;;;1.83;;
11533;SDS011;5823;50.588;8.462;2023-03-01T08:05:15;1.65;;;1.50;;
11533;SDS011;5823;50.588;8.462;2023-03-01T08:07:41;1.10;;;1.02;;
11533;SDS011;5823;50.588;8.462;2023-03-01T08:10:10;1.83;;;1.40;;
11533;SDS011;5823;50.588;8.462;2023-03-01T08:12:36;2.97;;;1.88;;
11533;SDS011;5823;50.588;8.462;2023-03-01T08:15:03;1.48;;;1.30;;
11533;SDS011;5823;50.588;8.462;2023-03-01T08:17:29;1.48;;;1.30;;
11533;SDS011;5823;50.588;8.462;2023-03-01T08:19:55;3.15;;;2.53;;
11533;SDS011;5823;50.588;8.462;2023-03-01T08:22:21;2.15;;;1.90;;
11533;SDS011;5823;50.588;8.462;2023-03-01T08:24:48;1.50;;;1.40;;
11533;SDS011;5823;50.588;8.462;2023-03-01T08:27:15;1.98;;;1.63;;
11533;SDS011;5823;50.588;8.462;2023-03-01T08:29:42;1.20;;;1.10;;
11533;SDS011;5823;50.588;8.462;2023-03-01T08:32:08;1.70;;;1.60;;
11533;SDS011;5823;50.588;8.462;2023-03-01T08:34:34;2.55;;;2.10;;
11533;SDS011;5823;50.588;8.462;2023-03-01T08:37:01;2.53;;;2.15;;
11533;SDS011;5823;50.588;8.462;2023-03-01T08:39:28;3.03;;;2.30;;
11533;SDS011;5823;50.588;8.462;2023-03-01T08:41:54;3.42;;;2.90;;
11533;SDS011;5823;50.588;8.462;2023-03-01T08:44:21;2.35;;;2.13;;
11533;SDS011;5823;50.588;8.462;2023-03-01T08:46:48;3.75;;;2.83;;
11533;SDS011;5823;50.588;8.462;2023-03-01T08:49:17;3.00;;;2.45;;
11533;SDS011;5823;50.588;8.462;2023-03-01T08:51:44;2.67;;;2.15;;
11533;SDS011;5823;50.588;8.462;2023-03-01T08:54:12;3.13;;;2.45;;
11533;SDS011;5823;50.588;8.462;2023-03-01T08:56:39;2.30;;;1.90;;
11533;SDS011;5823;50.588;8.462;2023-03-01T08:59:06;2.20;;;1.70;;
11533;SDS011;5823;50.588;8.462;2023-03-01T09:01:33;2.10;;;1.90;;
11533;SDS011;5823;50.588;8.462;2023-03-01T09:04:00;3.17;;;2.53;;
11533;SDS011;5823;50.588;8.462;2023-03-01T09:06:26;2.30;;;1.80;;
11533;SDS011;5823;50.588;8.462;2023-03-01T09:08:52;1.90;;;1.70;;
11533;SDS011;5823;50.588;8.462;2023-03-01T09:11:20;2.30;;;1.90;;
11533;SDS011;5823;50.588;8.462;2023-03-01T09:13:47;2.10;;;1.90;;
11533;SDS011;5823;50.588;8.462;2023-03-01T09:16:14;1.70;;;1.50;;
11533;SDS011;5823;50.588;8.462;2023-03-01T09:18:43;2.20;;;1.95;;
11533;SDS011;5823;50.588;8.462;2023-03-01T09:21:10;3.10;;;2.40;;
11533;SDS011;5823;50.588;8.462;2023-03-01T09:23:37;2.35;;;1.90;;
11533;SDS011;5823;50.588;8.462;2023-03-01T09:26:04;2.65;;;1.88;;
11533;SDS011;5823;50.588;8.462;2023-03-01T09:28:30;2.08;;;1.70;;
11533;SDS011;5823;50.588;8.462;2023-03-01T09:30:57;1.70;;;1.60;;
11533;SDS011;5823;50.588;8.462;2023-03-01T09:33:23;2.63;;;1.95;;
11533;SDS011;5823;50.588;8.462;2023-03-01T09:35:55;2.08;;;1.70;;
11533;SDS011;5823;50.588;8.462;2023-03-01T09:38:21;1.50;;;1.40;;
11533;SDS011;5823;50.588;8.462;2023-03-01T09:40:47;1.58;;;1.42;;
11533;SDS011;5823;50.588;8.462;2023-03-01T09:43:15;1.92;;;1.70;;
11533;SDS011;5823;50.588;8.462;2023-03-01T09:45:44;2.42;;;2.10;;
11533;SDS011;5823;50.588;8.462;2023-03-01T09:48:13;2.25;;;1.77;;
11533;SDS011;5823;50.588;8.462;2023-03-01T09:50:41;2.30;;;1.70;;
11533;SDS011;5823;50.588;8.462;2023-03-01T09:53:11;1.75;;;1.48;;
11533;SDS011;5823;50.588;8.462;2023-03-01T09:55:39;4.03;;;2.67;;
11533;SDS011;5823;50.588;8.462;2023-03-01T09:58:09;2.30;;;1.73;;
11533;SDS011;5823;50.588;8.462;2023-03-01T10:00:42;1.88;;;1.58;;
11533;SDS011;5823;50.588;8.462;2023-03-01T10:03:11;1.92;;;1.30;;
11533;SDS011;5823;50.588;8.462;2023-03-01T10:05:41;1.35;;;1.25;;
11533;SDS011;5823;50.588;8.462;2023-03-01T10:11:05;1.98;;;1.70;;
11533;SDS011;5823;50.588;8.462;2023-03-01T10:13:42;2.33;;;2.08;;
11533;SDS011;5823;50.588;8.462;2023-03-01T10:16:11;1.80;;;1.60;;
11533;SDS011;5823;50.588;8.462;2023-03-01T10:18:39;1.48;;;1.38;;
11533;SDS011;5823;50.588;8.462;2023-03-01T10:21:09;2.47;;;1.85;;
11533;SDS011;5823;50.588;8.462;2023-03-01T10:23:37;1.98;;;1.80;;
11533;SDS011;5823;50.588;8.462;2023-03-01T10:26:08;2.67;;;1.80;;
11533;SDS011;5823;50.588;8.462;2023-03-01T10:28:41;3.05;;;2.22;;
11533;SDS011;5823;50.588;8.462;2023-03-01T10:31:11;2.33;;;2.10;;
11533;SDS011;5823;50.588;8.462;2023-03-01T10:33:38;2.50;;;2.30;;
11533;SDS011;5823;50.588;8.462;2023-03-01T10:36:05;2.38;;;2.17;;
11533;SDS011;5823;50.588;8.462;2023-03-01T10:38:47;3.03;;;2.10;;
11533;SDS011;5823;50.588;8.462;2023-03-01T10:41:15;2.63;;;2.28;;
11533;SDS011;5823;50.588;8.462;2023-03-01T10:43:43;2.17;;;1.83;;
11533;SDS011;5823;50.588;8.462;2023-03-01T10:46:21;2.20;;;2.00;;
11533;SDS011;5823;50.588;8.462;2023-03-01T10:48:51;2.08;;;1.88;;
11533;SDS011;5823;50.588;8.462;2023-03-01T10:51:31;2.70;;;2.03;;
11533;SDS011;5823;50.588;8.462;2023-03-01T10:54:00;4.20;;;3.25;;
11533;SDS011;5823;50.588;8.462;2023-03-01T10:56:28;2.83;;;2.20;;
11533;SDS011;5823;50.588;8.462;2023-03-01T10:58:59;3.33;;;2.38;;
11533;SDS011;5823;50.588;8.462;2023-03-01T11:01:26;2.75;;;2.40;;
11533;SDS011;5823;50.588;8.462;2023-03-01T11:04:03;2.50;;;2.10;;
11533;SDS011;5823;50.588;8.462;2023-03-01T11:06:29;1.80;;;1.70;;
11533;SDS011;5823;50.588;8.462;2023-03-01T11:08:56;2.00;;;1.80;;
11533;SDS011;5823;50.588;8.462;2023-03-01T11:11:23;2.40;;;2.00;;
11533;SDS011;5823;50.588;8.462;2023-03-01T11:14:01;2.50;;;2.20;;
11533;SDS011;5823;50.588;8.462;2023-03-01T11:16:32;2.08;;;1.83;;
11533;SDS011;5823;50.588;8.462;2023-03-01T11:19:00;2.15;;;1.95;;
11533;SDS011;5823;50.588;8.462;2023-03-01T11:21:27;1.48;;;1.30;;
11533;SDS011;5823;50.588;8.462;2023-03-01T11:23:54;1.73;;;1.40;;
11533;SDS011;5823;50.588;8.462;2023-03-01T11:26:20;2.33;;;1.90;;
11533;SDS011;5823;50.588;8.462;2023-03-01T11:28:48;2.25;;;1.90;;
11533;SDS011;5823;50.588;8.462;2023-03-01T11:31:16;3.03;;;2.10;;
11533;SDS011;5823;50.588;8.462;2023-03-01T11:33:44;1.60;;;1.42;;
11533;SDS011;5823;50.588;8.462;2023-03-01T11:36:15;2.17;;;1.70;;
11533;SDS011;5823;50.588;8.462;2023-03-01T11:38:42;2.00;;;1.80;;
11533;SDS011;5823;50.588;8.462;2023-03-01T11:41:12;2.50;;;2.10;;
11533;SDS011;5823;50.588;8.462;2023-03-01T11:43:43;2.20;;;2.00;;
11533;SDS011;5823;50.588;8.462;2023-03-01T11:48:55;2.25;;;1.80;;
11533;SDS011;5823;50.588;8.462;2023-03-01T11:51:25;2.05;;;1.85;;
11533;SDS011;5823;50.588;8.462;2023-03-01T11:53:59;1.55;;;1.45;;
11533;SDS011;5823;50.588;8.462;2023-03-01T11:56:29;3.25;;;2.10;;
11533;SDS011;5823;50.588;8.462;2023-03-01T11:59:08;2.00;;;1.67;;
11533;SDS011;5823;50.588;8.462;2023-03-01T12:01:40;2.28;;;2.08;;
11533;SDS011;5823;50.588;8.462;2023-03-01T12:07:02;2.75;;;1.90;;
11533;SDS011;5823;50.588;8.462;2023-03-01T12:09:38;1.85;;;1.70;;
11533;SDS011;5823;50.588;8.462;2023-03-01T12:12:11;1.58;;;1.40;;
11533;SDS011;5823;50.588;8.462;2023-03-01T12:14:44;1.60;;;1.50;;
11533;SDS011;5823;50.588;8.462;2023-03-01T12:17:16;2.63;;;1.80;;
11533;SDS011;5823;50.588;8.462;2023-03-01T12:19:51;1.83;;;1.65;;
11533;SDS011;5823;50.588;8.462;2023-03-01T12:22:28;1.85;;;1.65;;
11533;SDS011;5823;50.588;8.462;2023-03-01T12:25:07;2.30;;;1.90;;
11533;SDS011;5823;50.588;8.462;2023-03-01T12:27:43;1.73;;;1.63;;
11533;SDS011;5823;50.588;8.462;2023-03-01T12:30:19;2.15;;;1.95;;
11533;SDS011;5823;50.588;8.462;2023-03-01T12:32:50;2.80;;;2.33;;
11533;SDS011;5823;50.588;8.462;2023-03-01T12:35:25;1.80;;;1.60;;
11533;SDS011;5823;50.588;8.462;2023-03-01T12:37:58;1.90;;;1.70;;
11533;SDS011;5823;50.588;8.462;2023-03-01T12:40:32;1.83;;;1.50;;
11533;SDS011;5823;50.588;8.462;2023-03-01T12:43:03;2.00;;;1.80;;
11533;SDS011;5823;50.588;8.462;2023-03-01T12:45:35;2.03;;;1.70;;
11533;SDS011;5823;50.588;8.462;2023-03-01T12:48:10;2.78;;;2.58;;
11533;SDS011;5823;50.588;8.462;2023-03-01T12:50:40;2.60;;;2.10;;
11533;SDS011;5823;50.588;8.462;2023-03-01T12:53:10;2.60;;;1.98;;
11533;SDS011;5823;50.588;8.462;2023-03-01T12:55:42;2.75;;;2.47;;
11533;SDS011;5823;50.588;8.462;2023-03-01T12:58:20;2.45;;;2.20;;
11533;SDS011;5823;50.588;8.462;2023-03-01T13:00:51;2.35;;;2.10;;
11533;SDS011;5823;50.588;8.462;2023-03-01T13:03:23;2.55;;;2.17;;
11533;SDS011;5823;50.588;8.462;2023-03-01T13:05:56;1.60;;;1.50;;
11533;SDS011;5823;50.588;8.462;2023-03-01T13:08:29;2.20;;;2.00;;
11533;SDS011;5823;50.588;8.462;2023-03-01T13:10:58;2.50;;;2.22;;
11533;SDS011;5823;50.588;8.462;2023-03-01T13:13:26;2.25;;;1.90;;
11533;SDS011;5823;50.588;8.462;2023-03-01T13:15:53;2.42;;;2.13;;
11533;SDS011;5823;50.588;8.462;2023-03-01T13:18:29;2.85;;;2.55;;
11533;SDS011;5823;50.588;8.462;2023-03-01T13:20:56;2.40;;;2.20;;
11533;SDS011;5823;50.588;8.462;2023-03-01T13:23:24;2.65;;;2.20;;
11533;SDS011;5823;50.588;8.462;2023-03-01T13:26:06;2.65;;;2.17;;
11533;SDS011;5823;50.588;8.462;2023-03-01T13:28:40;2.35;;;2.00;;
11533;SDS011;5823;50.588;8.462;2023-03-01T13:31:07;2.33;;;2.00;;
11533;SDS011;5823;50.588;8.462;2023-03-01T13:33:41;3.40;;;2.40;;
11533;SDS011;5823;50.588;8.462;2023-03-01T13:36:07;2.65;;;2.40;;
11533;SDS011;5823;50.588;8.462;2023-03-01T13:38:37;2.75;;;2.13;;
11533;SDS011;5823;50.588;8.462;2023-03-01T13:41:03;2.25;;;1.80;;
11533;SDS011;5823;50.588;8.462;2023-03-01T13:43:32;2.08;;;1.88;;
11533;SDS011;5823;50.588;8.462;2023-03-01T13:45:58;2.17;;;1.80;;
11533;SDS011;5823;50.588;8.462;2023-03-01T13:48:26;1.98;;;1.70;;
11533;SDS011;5823;50.588;8.462;2023-03-01T13:50:54;1.85;;;1.65;;
11533;SDS011;5823;50.588;8.462;2023-03-01T13:53:22;2.85;;;2.08;;
11533;SDS011;5823;50.588;8.462;2023-03-01T13:55:50;2.47;;;1.50;;
11533;SDS011;5823;50.588;8.462;2023-03-01T13:58:21;3.03;;;2.00;;
11533;SDS011;5823;50.588;8.462;2023-03-01T14:00:54;2.25;;;1.77;;
11533;SDS011;5823;50.588;8.462;2023-03-01T14:03:20;1.63;;;1.52;;
11533;SDS011;5823;50.588;8.462;2023-03-01T14:05:57;3.00;;;2.42;;
11533;SDS011;5823;50.588;8.462;2023-03-01T14:08:24;3.20;;;2.90;;
11533;SDS011;5823;50.588;8.462;2023-03-01T14:10:57;2.35;;;2.15;;
11533;SDS011;5823;50.588;8.462;2023-03-01T14:13:30;2.80;;;2.10;;
11533;SDS011;5823;50.588;8.462;2023-03-01T14:16:06;1.95;;;1.65;;
11533;SDS011;5823;50.588;8.462;2023-03-01T14:18:35;2.55;;;2.13;;
11533;SDS011;5823;50.588;8.462;2023-03-01T14:21:07;2.15;;;1.95;;
11533;SDS011;5823;50.588;8.462;2023-03-01T14:23:33;2.33;;;1.90;;
11533;SDS011;5823;50.588;8.462;2023-03-01T14:26:00;1.83;;;1.73;;
11533;SDS011;5823;50.588;8.462;2023-03-01T14:28:27;2.22;;;1.40;;
11533;SDS011;5823;50.588;8.462;2023-03-01T14:30:55;1.75;;;1.48;;
11533;SDS011;5823;50.588;8.462;2023-03-01T14:33:24;1.83;;;1.60;;
11533;SDS011;5823;50.588;8.462;2023-03-01T14:35:55;2.65;;;2.20;;
11533;SDS011;5823;50.588;8.462;2023-03-01T14:38:22;2.22;;;2.00;;
11533;SDS011;5823;50.588;8.462;2023-03-01T14:40:49;2.05;;;1.88;;
11533;SDS011;5823;50.588;8.462;2023-03-01T14:43:18;2.30;;;1.70;;
11533;SDS011;5823;50.588;8.462;2023-03-01T14:45:46;3.17;;;2.33;;
11533;SDS011;5823;50.588;8.462;2023-03-01T14:48:13;2.03;;;1.73;;
11533;SDS011;5823;50.588;8.462;2023-03-01T14:50:41;2.10;;;1.90;;
11533;SDS011;5823;50.588;8.462;2023-03-01T14:53:12;2.33;;;2.13;;
11533;SDS011;5823;50.588;8.462;2023-03-01T14:55:42;2.83;;;2.53;;
11533;SDS011;5823;50.588;8.462;2023-03-01T14:58:12;2.30;;;2.10;;
11533;SDS011;5823;50.588;8.462;2023-03-01T15:00:38;3.25;;;1.95;;
11533;SDS011;5823;50.588;8.462;2023-03-01T15:03:06;2.45;;;1.92;;
11533;SDS011;5823;50.588;8.462;2023-03-01T15:05:34;2.72;;;1.95;;
11533;SDS011;5823;50.588;8.462;2023-03-01T15:08:02;1.33;;;1.23;;
11533;SDS011;5823;50.588;8.462;2023-03-01T15:10:30;1.20;;;1.10;;
11533;SDS011;5823;50.588;8.462;2023-03-01T15:13:09;1.75;;;1.55;;
11533;SDS011;5823;50.588;8.462;2023-03-01T15:15:36;1.80;;;1.60;;